sensor_id;sensor_type;location;lat;lon;timestamp;P1;durP1;ratioP1;P2;durP2;ratioP2
10987;SDS011;5547;42.672;23.230;2023-08-17T00:02:45;7.03;;;4.93;;
10987;SDS011;5547;42.672;23.230;2023-08-17T00:05:45;9.50;;;5.57;;
10987;SDS011;5547;42.672;23.230;2023-08-17T00:08:46;7.47;;;5.68;;
10987;SDS011;5547;42.672;23.230;2023-08-17T00:11:46;8.17;;;5.80;;
10987;SDS011;5547;42.672;23.230;2023-08-17T00:14:46;7.70;;;5.77;;
10987;SDS011;5547;42.672;23.230;2023-08-17T00:17:47;8.60;;;6.07;;
10987;SDS011;5547;42.672;23.230;2023-08-17T00:20:47;8.60;;;5.97;;
10987;SDS011;5547;42.672;23.230;2023-08-17T00:23:48;9.13;;;6.27;;
10987;SDS011;5547;42.672;23.230;2023-08-17T00:26:49;9.73;;;6.10;;
10987;SDS011;5547;42.672;23.230;2023-08-17T00:29:49;8.63;;;6.30;;
10987;SDS011;5547;42.672;23.230;2023-08-17T00:32:49;8.17;;;5.77;;
10987;SDS011;5547;42.672;23.230;2023-08-17T00:35:50;7.60;;;5.80;;
10987;SDS011;5547;42.672;23.230;2023-08-17T00:38:50;6.80;;;5.65;;
10987;SDS011;5547;42.672;23.230;2023-08-17T00:41:51;8.27;;;6.25;;
10987;SDS011;5547;42.672;23.230;2023-08-17T00:44:52;7.57;;;5.87;;
10987;SDS011;5547;42.672;23.230;2023-08-17T00:47:54;8.83;;;5.80;;
10987;SDS011;5547;42.672;23.230;2023-08-17T00:50:56;6.68;;;5.40;;
10987;SDS011;5547;42.672;23.230;2023-08-17T00:53:59;7.38;;;5.60;;
10987;SDS011;5547;42.672;23.230;2023-08-17T00:57:01;7.97;;;5.70;;
10987;SDS011;5547;42.672;23.230;2023-08-17T01:00:06;8.25;;;5.20;;
10987;SDS011;5547;42.672;23.230;2023-08-17T01:03:08;7.75;;;5.55;;
10987;SDS011;5547;42.672;23.230;2023-08-17T01:06:09;7.67;;;5.40;;
10987;SDS011;5547;42.672;23.230;2023-08-17T01:09:10;7.25;;;5.60;;
10987;SDS011;5547;42.672;23.230;2023-08-17T01:12:25;8.73;;;5.27;;
10987;SDS011;5547;42.672;23.230;2023-08-17T01:15:31;5.97;;;5.27;;
10987;SDS011;5547;42.672;23.230;2023-08-17T01:18:36;7.97;;;5.10;;
10987;SDS011;5547;42.672;23.230;2023-08-17T01:21:45;7.47;;;4.72;;
10987;SDS011;5547;42.672;23.230;2023-08-17T01:24:50;6.68;;;4.50;;
10987;SDS011;5547;42.672;23.230;2023-08-17T01:27:57;7.63;;;4.70;;
10987;SDS011;5547;42.672;23.230;2023-08-17T01:31:00;6.65;;;4.28;;
10987;SDS011;5547;42.672;23.230;2023-08-17T01:34:10;7.03;;;4.18;;
10987;SDS011;5547;42.672;23.230;2023-08-17T01:37:18;6.70;;;4.35;;
10987;SDS011;5547;42.672;23.230;2023-08-17T01:40:21;7.60;;;4.20;;
10987;SDS011;5547;42.672;23.230;2023-08-17T01:43:23;6.53;;;3.90;;
10987;SDS011;5547;42.672;23.230;2023-08-17T01:46:25;4.37;;;3.80;;
10987;SDS011;5547;42.672;23.230;2023-08-17T01:49:32;4.78;;;3.78;;
10987;SDS011;5547;42.672;23.230;2023-08-17T01:52:32;4.43;;;3.50;;
10987;SDS011;5547;42.672;23.230;2023-08-17T01:55:33;7.47;;;4.20;;
10987;SDS011;5547;42.672;23.230;2023-08-17T01:58:35;5.45;;;4.00;;
10987;SDS011;5547;42.672;23.230;2023-08-17T02:01:35;5.97;;;4.07;;
10987;SDS011;5547;42.672;23.230;2023-08-17T02:04:36;6.00;;;3.93;;
10987;SDS011;5547;42.672;23.230;2023-08-17T02:07:36;5.87;;;4.10;;
10987;SDS011;5547;42.672;23.230;2023-08-17T02:10:37;6.37;;;4.33;;
10987;SDS011;5547;42.672;23.230;2023-08-17T02:13:37;6.20;;;4.20;;
10987;SDS011;5547;42.672;23.230;2023-08-17T02:16:37;5.72;;;4.10;;
10987;SDS011;5547;42.672;23.230;2023-08-17T02:19:38;6.50;;;4.63;;
10987;SDS011;5547;42.672;23.230;2023-08-17T02:22:38;7.17;;;4.90;;
10987;SDS011;5547;42.672;23.230;2023-08-17T02:25:39;8.40;;;4.53;;
10987;SDS011;5547;42.672;23.230;2023-08-17T02:28:39;6.93;;;5.22;;
10987;SDS011;5547;42.672;23.230;2023-08-17T02:31:40;7.32;;;4.93;;
10987;SDS011;5547;42.672;23.230;2023-08-17T02:34:40;6.23;;;5.10;;
10987;SDS011;5547;42.672;23.230;2023-08-17T02:37:40;7.33;;;4.83;;
10987;SDS011;5547;42.672;23.230;2023-08-17T02:40:41;8.70;;;5.10;;
10987;SDS011;5547;42.672;23.230;2023-08-17T02:43:41;6.63;;;4.47;;
10987;SDS011;5547;42.672;23.230;2023-08-17T02:46:42;6.23;;;4.30;;
10987;SDS011;5547;42.672;23.230;2023-08-17T02:49:42;7.73;;;4.97;;
10987;SDS011;5547;42.672;23.230;2023-08-17T02:52:42;6.93;;;5.03;;
10987;SDS011;5547;42.672;23.230;2023-08-17T02:55:43;8.07;;;5.23;;
10987;SDS011;5547;42.672;23.230;2023-08-17T02:58:43;7.67;;;4.90;;
10987;SDS011;5547;42.672;23.230;2023-08-17T03:01:44;6.70;;;5.20;;
10987;SDS011;5547;42.672;23.230;2023-08-17T03:04:45;6.38;;;5.07;;
10987;SDS011;5547;42.672;23.230;2023-08-17T03:07:46;8.60;;;5.30;;
10987;SDS011;5547;42.672;23.230;2023-08-17T03:10:47;7.93;;;5.47;;
10987;SDS011;5547;42.672;23.230;2023-08-17T03:13:47;7.25;;;5.20;;
10987;SDS011;5547;42.672;23.230;2023-08-17T03:16:48;6.67;;;5.20;;
10987;SDS011;5547;42.672;23.230;2023-08-17T03:19:49;8.37;;;5.90;;
10987;SDS011;5547;42.672;23.230;2023-08-17T03:22:49;7.65;;;5.30;;
10987;SDS011;5547;42.672;23.230;2023-08-17T03:25:52;6.90;;;5.67;;
10987;SDS011;5547;42.672;23.230;2023-08-17T03:28:53;8.07;;;5.53;;
10987;SDS011;5547;42.672;23.230;2023-08-17T03:31:54;8.00;;;5.55;;
10987;SDS011;5547;42.672;23.230;2023-08-17T03:34:54;7.77;;;5.03;;
10987;SDS011;5547;42.672;23.230;2023-08-17T03:37:54;7.10;;;5.43;;
10987;SDS011;5547;42.672;23.230;2023-08-17T03:40:55;7.17;;;4.97;;
10987;SDS011;5547;42.672;23.230;2023-08-17T03:43:55;10.27;;;5.63;;
10987;SDS011;5547;42.672;23.230;2023-08-17T03:46:56;8.10;;;5.83;;
10987;SDS011;5547;42.672;23.230;2023-08-17T03:49:56;10.90;;;5.88;;
10987;SDS011;5547;42.672;23.230;2023-08-17T03:52:56;9.23;;;5.97;;
10987;SDS011;5547;42.672;23.230;2023-08-17T03:55:57;10.37;;;5.93;;
10987;SDS011;5547;42.672;23.230;2023-08-17T03:58:58;7.43;;;5.97;;
10987;SDS011;5547;42.672;23.230;2023-08-17T04:01:58;8.00;;;6.03;;
10987;SDS011;5547;42.672;23.230;2023-08-17T04:04:59;7.67;;;6.33;;
10987;SDS011;5547;42.672;23.230;2023-08-17T04:08:02;7.80;;;5.63;;
10987;SDS011;5547;42.672;23.230;2023-08-17T04:11:04;9.65;;;5.63;;
10987;SDS011;5547;42.672;23.230;2023-08-17T04:14:05;7.15;;;6.03;;
10987;SDS011;5547;42.672;23.230;2023-08-17T04:17:05;7.30;;;5.53;;
10987;SDS011;5547;42.672;23.230;2023-08-17T04:20:06;7.15;;;5.32;;
10987;SDS011;5547;42.672;23.230;2023-08-17T04:23:07;8.07;;;5.07;;
10987;SDS011;5547;42.672;23.230;2023-08-17T04:26:07;8.98;;;4.90;;
10987;SDS011;5547;42.672;23.230;2023-08-17T04:29:07;8.47;;;5.17;;
10987;SDS011;5547;42.672;23.230;2023-08-17T04:32:13;7.13;;;4.40;;
10987;SDS011;5547;42.672;23.230;2023-08-17T04:35:14;7.60;;;4.30;;
10987;SDS011;5547;42.672;23.230;2023-08-17T04:38:14;6.50;;;4.13;;
10987;SDS011;5547;42.672;23.230;2023-08-17T04:41:15;6.27;;;4.40;;
10987;SDS011;5547;42.672;23.230;2023-08-17T04:44:17;6.00;;;4.17;;
10987;SDS011;5547;42.672;23.230;2023-08-17T04:47:17;4.88;;;4.07;;
10987;SDS011;5547;42.672;23.230;2023-08-17T04:50:17;7.22;;;4.30;;
10987;SDS011;5547;42.672;23.230;2023-08-17T04:53:18;5.78;;;3.88;;
10987;SDS011;5547;42.672;23.230;2023-08-17T04:56:18;6.50;;;4.20;;
10987;SDS011;5547;42.672;23.230;2023-08-17T04:59:19;9.33;;;4.57;;
10987;SDS011;5547;42.672;23.230;2023-08-17T05:02:19;8.07;;;4.87;;
10987;SDS011;5547;42.672;23.230;2023-08-17T05:05:19;6.90;;;4.97;;
10987;SDS011;5547;42.672;23.230;2023-08-17T05:08:20;7.33;;;4.63;;
10987;SDS011;5547;42.672;23.230;2023-08-17T05:11:22;7.05;;;5.45;;
10987;SDS011;5547;42.672;23.230;2023-08-17T05:14:22;8.67;;;5.47;;
10987;SDS011;5547;42.672;23.230;2023-08-17T05:17:22;5.77;;;4.80;;
10987;SDS011;5547;42.672;23.230;2023-08-17T05:20:23;8.77;;;4.80;;
10987;SDS011;5547;42.672;23.230;2023-08-17T05:23:23;6.30;;;4.67;;
10987;SDS011;5547;42.672;23.230;2023-08-17T05:26:24;7.50;;;4.47;;
10987;SDS011;5547;42.672;23.230;2023-08-17T05:29:25;7.50;;;4.65;;
10987;SDS011;5547;42.672;23.230;2023-08-17T05:32:26;7.85;;;4.32;;
10987;SDS011;5547;42.672;23.230;2023-08-17T05:35:26;6.00;;;4.23;;
10987;SDS011;5547;42.672;23.230;2023-08-17T05:38:27;7.17;;;4.67;;
10987;SDS011;5547;42.672;23.230;2023-08-17T05:41:27;8.67;;;4.17;;
10987;SDS011;5547;42.672;23.230;2023-08-17T05:44:28;8.03;;;4.77;;
10987;SDS011;5547;42.672;23.230;2023-08-17T05:47:28;5.20;;;4.40;;
10987;SDS011;5547;42.672;23.230;2023-08-17T05:50:28;10.30;;;4.57;;
10987;SDS011;5547;42.672;23.230;2023-08-17T05:53:29;7.07;;;4.40;;
10987;SDS011;5547;42.672;23.230;2023-08-17T05:56:29;6.70;;;4.43;;
10987;SDS011;5547;42.672;23.230;2023-08-17T05:59:31;6.85;;;4.80;;
10987;SDS011;5547;42.672;23.230;2023-08-17T06:02:32;6.37;;;4.00;;
10987;SDS011;5547;42.672;23.230;2023-08-17T06:05:32;10.20;;;4.53;;
10987;SDS011;5547;42.672;23.230;2023-08-17T06:08:33;6.95;;;4.43;;
10987;SDS011;5547;42.672;23.230;2023-08-17T06:11:33;7.35;;;4.00;;
10987;SDS011;5547;42.672;23.230;2023-08-17T06:14:34;10.13;;;4.20;;
10987;SDS011;5547;42.672;23.230;2023-08-17T06:17:34;7.80;;;4.00;;
10987;SDS011;5547;42.672;23.230;2023-08-17T06:20:34;8.13;;;3.33;;
10987;SDS011;5547;42.672;23.230;2023-08-17T06:23:35;7.57;;;3.83;;
10987;SDS011;5547;42.672;23.230;2023-08-17T06:26:35;5.80;;;3.60;;
10987;SDS011;5547;42.672;23.230;2023-08-17T06:29:36;4.70;;;3.60;;
10987;SDS011;5547;42.672;23.230;2023-08-17T06:32:36;6.47;;;3.77;;
10987;SDS011;5547;42.672;23.230;2023-08-17T06:35:36;5.37;;;3.40;;
10987;SDS011;5547;42.672;23.230;2023-08-17T06:38:37;6.00;;;3.63;;
10987;SDS011;5547;42.672;23.230;2023-08-17T06:41:37;5.37;;;3.73;;
10987;SDS011;5547;42.672;23.230;2023-08-17T06:44:37;7.77;;;4.20;;
10987;SDS011;5547;42.672;23.230;2023-08-17T06:47:38;9.13;;;4.07;;
10987;SDS011;5547;42.672;23.230;2023-08-17T06:50:38;6.00;;;4.57;;
10987;SDS011;5547;42.672;23.230;2023-08-17T06:53:39;7.00;;;4.50;;
10987;SDS011;5547;42.672;23.230;2023-08-17T06:56:39;8.37;;;5.33;;
10987;SDS011;5547;42.672;23.230;2023-08-17T06:59:39;6.93;;;4.87;;
10987;SDS011;5547;42.672;23.230;2023-08-17T07:02:40;6.13;;;3.88;;
10987;SDS011;5547;42.672;23.230;2023-08-17T07:05:40;8.77;;;5.00;;
10987;SDS011;5547;42.672;23.230;2023-08-17T07:08:41;5.63;;;4.10;;
10987;SDS011;5547;42.672;23.230;2023-08-17T07:11:41;7.20;;;4.20;;
10987;SDS011;5547;42.672;23.230;2023-08-17T07:14:42;6.13;;;3.93;;
10987;SDS011;5547;42.672;23.230;2023-08-17T07:17:42;7.23;;;4.20;;
10987;SDS011;5547;42.672;23.230;2023-08-17T07:20:43;7.43;;;4.03;;
10987;SDS011;5547;42.672;23.230;2023-08-17T07:23:43;5.37;;;4.10;;
10987;SDS011;5547;42.672;23.230;2023-08-17T07:26:45;5.18;;;4.20;;
10987;SDS011;5547;42.672;23.230;2023-08-17T07:29:46;6.07;;;4.40;;
10987;SDS011;5547;42.672;23.230;2023-08-17T07:32:46;6.77;;;4.20;;
10987;SDS011;5547;42.672;23.230;2023-08-17T07:35:47;8.77;;;4.40;;
10987;SDS011;5547;42.672;23.230;2023-08-17T07:38:47;5.80;;;3.90;;
10987;SDS011;5547;42.672;23.230;2023-08-17T07:41:47;6.63;;;4.40;;
10987;SDS011;5547;42.672;23.230;2023-08-17T07:44:48;4.43;;;3.37;;
10987;SDS011;5547;42.672;23.230;2023-08-17T07:47:48;5.70;;;3.30;;
10987;SDS011;5547;42.672;23.230;2023-08-17T07:50:49;3.80;;;2.70;;
10987;SDS011;5547;42.672;23.230;2023-08-17T07:53:50;3.65;;;2.60;;
10987;SDS011;5547;42.672;23.230;2023-08-17T07:56:51;4.87;;;3.17;;
10987;SDS011;5547;42.672;23.230;2023-08-17T07:59:51;4.33;;;2.77;;
10987;SDS011;5547;42.672;23.230;2023-08-17T08:02:53;5.03;;;3.00;;
10987;SDS011;5547;42.672;23.230;2023-08-17T08:05:54;6.00;;;3.05;;
10987;SDS011;5547;42.672;23.230;2023-08-17T08:08:54;4.85;;;3.25;;
10987;SDS011;5547;42.672;23.230;2023-08-17T08:11:54;5.22;;;3.30;;
10987;SDS011;5547;42.672;23.230;2023-08-17T08:14:55;4.57;;;3.20;;
10987;SDS011;5547;42.672;23.230;2023-08-17T08:17:55;4.68;;;3.28;;
10987;SDS011;5547;42.672;23.230;2023-08-17T08:20:56;4.70;;;3.08;;
10987;SDS011;5547;42.672;23.230;2023-08-17T08:23:56;4.32;;;2.92;;
10987;SDS011;5547;42.672;23.230;2023-08-17T08:26:56;4.40;;;3.00;;
10987;SDS011;5547;42.672;23.230;2023-08-17T08:29:57;7.45;;;3.30;;
10987;SDS011;5547;42.672;23.230;2023-08-17T08:32:57;4.47;;;3.00;;
10987;SDS011;5547;42.672;23.230;2023-08-17T08:35:59;5.85;;;3.10;;
10987;SDS011;5547;42.672;23.230;2023-08-17T08:38:59;6.38;;;3.10;;
10987;SDS011;5547;42.672;23.230;2023-08-17T08:41:59;4.90;;;3.10;;
10987;SDS011;5547;42.672;23.230;2023-08-17T08:45:00;5.03;;;3.00;;
10987;SDS011;5547;42.672;23.230;2023-08-17T08:48:00;7.20;;;3.40;;
10987;SDS011;5547;42.672;23.230;2023-08-17T08:51:03;5.30;;;3.10;;
10987;SDS011;5547;42.672;23.230;2023-08-17T08:54:06;6.30;;;3.15;;
10987;SDS011;5547;42.672;23.230;2023-08-17T08:57:12;3.72;;;3.20;;
10987;SDS011;5547;42.672;23.230;2023-08-17T09:00:14;4.43;;;3.20;;
10987;SDS011;5547;42.672;23.230;2023-08-17T09:03:15;5.73;;;3.67;;
10987;SDS011;5547;42.672;23.230;2023-08-17T09:06:18;5.97;;;2.90;;
10987;SDS011;5547;42.672;23.230;2023-08-17T09:09:23;4.75;;;3.25;;
10987;SDS011;5547;42.672;23.230;2023-08-17T09:12:24;6.78;;;3.63;;
10987;SDS011;5547;42.672;23.230;2023-08-17T09:15:24;5.87;;;3.20;;
10987;SDS011;5547;42.672;23.230;2023-08-17T09:18:24;5.20;;;3.07;;
10987;SDS011;5547;42.672;23.230;2023-08-17T09:21:25;4.20;;;3.27;;
10987;SDS011;5547;42.672;23.230;2023-08-17T09:24:35;5.47;;;3.57;;
10987;SDS011;5547;42.672;23.230;2023-08-17T09:27:38;5.93;;;3.60;;
10987;SDS011;5547;42.672;23.230;2023-08-17T09:33:52;5.20;;;3.15;;
10987;SDS011;5547;42.672;23.230;2023-08-17T09:36:52;6.50;;;3.30;;
10987;SDS011;5547;42.672;23.230;2023-08-17T09:39:53;5.07;;;3.30;;
10987;SDS011;5547;42.672;23.230;2023-08-17T09:42:54;5.20;;;3.42;;
10987;SDS011;5547;42.672;23.230;2023-08-17T09:45:55;4.50;;;3.22;;
10987;SDS011;5547;42.672;23.230;2023-08-17T09:48:55;5.57;;;3.17;;
10987;SDS011;5547;42.672;23.230;2023-08-17T09:51:58;4.83;;;2.97;;
10987;SDS011;5547;42.672;23.230;2023-08-17T09:54:59;4.22;;;3.00;;
10987;SDS011;5547;42.672;23.230;2023-08-17T09:58:03;4.20;;;2.65;;
10987;SDS011;5547;42.672;23.230;2023-08-17T10:01:04;5.30;;;2.70;;
10987;SDS011;5547;42.672;23.230;2023-08-17T10:04:07;3.75;;;2.50;;
10987;SDS011;5547;42.672;23.230;2023-08-17T10:07:09;4.38;;;2.58;;
10987;SDS011;5547;42.672;23.230;2023-08-17T10:10:12;5.72;;;2.92;;
10987;SDS011;5547;42.672;23.230;2023-08-17T10:13:27;5.10;;;2.55;;
10987;SDS011;5547;42.672;23.230;2023-08-17T10:16:49;4.57;;;2.63;;
10987;SDS011;5547;42.672;23.230;2023-08-17T10:19:54;5.57;;;2.70;;
10987;SDS011;5547;42.672;23.230;2023-08-17T10:23:17;3.85;;;2.60;;
10987;SDS011;5547;42.672;23.230;2023-08-17T10:26:19;6.77;;;2.37;;
10987;SDS011;5547;42.672;23.230;2023-08-17T10:29:20;4.25;;;2.30;;
10987;SDS011;5547;42.672;23.230;2023-08-17T10:32:23;2.70;;;2.28;;
10987;SDS011;5547;42.672;23.230;2023-08-17T10:35:25;3.55;;;2.50;;
10987;SDS011;5547;42.672;23.230;2023-08-17T10:38:26;3.05;;;2.47;;
10987;SDS011;5547;42.672;23.230;2023-08-17T10:41:26;7.28;;;2.60;;
10987;SDS011;5547;42.672;23.230;2023-08-17T10:44:45;2.95;;;2.38;;
10987;SDS011;5547;42.672;23.230;2023-08-17T10:47:47;4.40;;;2.35;;
10987;SDS011;5547;42.672;23.230;2023-08-17T10:51:03;4.47;;;2.33;;
10987;SDS011;5547;42.672;23.230;2023-08-17T10:54:05;3.47;;;2.40;;
10987;SDS011;5547;42.672;23.230;2023-08-17T10:57:24;5.40;;;2.42;;
10987;SDS011;5547;42.672;23.230;2023-08-17T11:00:25;3.45;;;2.65;;
10987;SDS011;5547;42.672;23.230;2023-08-17T11:03:34;4.47;;;2.42;;
10987;SDS011;5547;42.672;23.230;2023-08-17T11:06:36;2.90;;;2.60;;
10987;SDS011;5547;42.672;23.230;2023-08-17T11:09:37;3.53;;;2.50;;
10987;SDS011;5547;42.672;23.230;2023-08-17T11:12:37;5.33;;;2.37;;
10987;SDS011;5547;42.672;23.230;2023-08-17T11:15:41;3.30;;;2.40;;
10987;SDS011;5547;42.672;23.230;2023-08-17T11:18:42;2.60;;;2.10;;
10987;SDS011;5547;42.672;23.230;2023-08-17T11:21:44;3.67;;;2.08;;
10987;SDS011;5547;42.672;23.230;2023-08-17T11:24:45;4.55;;;2.67;;
10987;SDS011;5547;42.672;23.230;2023-08-17T11:27:45;4.00;;;2.40;;
10987;SDS011;5547;42.672;23.230;2023-08-17T11:30:55;5.22;;;2.72;;
10987;SDS011;5547;42.672;23.230;2023-08-17T11:33:57;3.75;;;2.47;;
10987;SDS011;5547;42.672;23.230;2023-08-17T11:36:58;4.47;;;2.30;;
10987;SDS011;5547;42.672;23.230;2023-08-17T11:39:58;3.37;;;2.40;;
10987;SDS011;5547;42.672;23.230;2023-08-17T11:42:59;3.00;;;2.27;;
10987;SDS011;5547;42.672;23.230;2023-08-17T11:46:00;5.10;;;3.30;;
10987;SDS011;5547;42.672;23.230;2023-08-17T11:49:01;4.28;;;3.05;;
10987;SDS011;5547;42.672;23.230;2023-08-17T11:52:02;5.93;;;2.80;;
10987;SDS011;5547;42.672;23.230;2023-08-17T11:55:06;3.53;;;2.70;;
10987;SDS011;5547;42.672;23.230;2023-08-17T11:58:10;3.88;;;3.10;;
10987;SDS011;5547;42.672;23.230;2023-08-17T12:01:11;4.25;;;3.20;;
10987;SDS011;5547;42.672;23.230;2023-08-17T12:04:12;3.40;;;2.70;;
10987;SDS011;5547;42.672;23.230;2023-08-17T12:07:13;4.53;;;2.90;;
10987;SDS011;5547;42.672;23.230;2023-08-17T12:10:13;6.10;;;3.00;;
10987;SDS011;5547;42.672;23.230;2023-08-17T12:13:14;5.73;;;3.10;;
10987;SDS011;5547;42.672;23.230;2023-08-17T12:16:14;2.93;;;2.63;;
10987;SDS011;5547;42.672;23.230;2023-08-17T12:19:15;4.20;;;2.95;;
10987;SDS011;5547;42.672;23.230;2023-08-17T12:22:16;3.63;;;2.78;;
10987;SDS011;5547;42.672;23.230;2023-08-17T12:25:20;3.80;;;3.10;;
10987;SDS011;5547;42.672;23.230;2023-08-17T12:28:22;5.53;;;2.97;;
10987;SDS011;5547;42.672;23.230;2023-08-17T12:31:24;5.13;;;2.85;;
10987;SDS011;5547;42.672;23.230;2023-08-17T12:34:24;3.10;;;2.70;;
10987;SDS011;5547;42.672;23.230;2023-08-17T12:37:25;5.85;;;2.92;;
10987;SDS011;5547;42.672;23.230;2023-08-17T12:40:25;5.63;;;3.58;;
10987;SDS011;5547;42.672;23.230;2023-08-17T12:43:26;4.77;;;3.50;;
10987;SDS011;5547;42.672;23.230;2023-08-17T12:46:27;5.43;;;4.57;;
10987;SDS011;5547;42.672;23.230;2023-08-17T12:49:27;5.25;;;4.38;;
10987;SDS011;5547;42.672;23.230;2023-08-17T12:52:28;5.97;;;4.60;;
10987;SDS011;5547;42.672;23.230;2023-08-17T12:55:28;8.10;;;4.47;;
10987;SDS011;5547;42.672;23.230;2023-08-17T12:58:28;6.00;;;3.93;;
10987;SDS011;5547;42.672;23.230;2023-08-17T13:01:29;5.20;;;4.30;;
10987;SDS011;5547;42.672;23.230;2023-08-17T13:04:29;5.97;;;3.80;;
10987;SDS011;5547;42.672;23.230;2023-08-17T13:07:30;5.70;;;4.43;;
10987;SDS011;5547;42.672;23.230;2023-08-17T13:10:30;6.88;;;4.40;;
10987;SDS011;5547;42.672;23.230;2023-08-17T13:13:31;6.27;;;4.70;;
10987;SDS011;5547;42.672;23.230;2023-08-17T13:16:31;5.43;;;4.30;;
10987;SDS011;5547;42.672;23.230;2023-08-17T13:19:31;5.10;;;4.13;;
10987;SDS011;5547;42.672;23.230;2023-08-17T13:22:32;6.15;;;4.28;;
10987;SDS011;5547;42.672;23.230;2023-08-17T13:25:32;4.80;;;4.40;;
10987;SDS011;5547;42.672;23.230;2023-08-17T13:28:33;5.53;;;4.38;;
10987;SDS011;5547;42.672;23.230;2023-08-17T13:31:33;5.72;;;4.20;;
10987;SDS011;5547;42.672;23.230;2023-08-17T13:34:34;6.00;;;4.35;;
10987;SDS011;5547;42.672;23.230;2023-08-17T13:37:36;6.28;;;4.00;;
10987;SDS011;5547;42.672;23.230;2023-08-17T13:40:37;5.15;;;3.60;;
10987;SDS011;5547;42.672;23.230;2023-08-17T13:43:38;5.72;;;4.03;;
10987;SDS011;5547;42.672;23.230;2023-08-17T13:46:39;5.30;;;4.07;;
10987;SDS011;5547;42.672;23.230;2023-08-17T13:49:39;4.70;;;3.93;;
10987;SDS011;5547;42.672;23.230;2023-08-17T13:52:40;4.50;;;3.80;;
10987;SDS011;5547;42.672;23.230;2023-08-17T13:55:40;5.13;;;4.00;;
10987;SDS011;5547;42.672;23.230;2023-08-17T13:58:41;5.00;;;3.90;;
10987;SDS011;5547;42.672;23.230;2023-08-17T14:01:41;6.63;;;4.30;;
10987;SDS011;5547;42.672;23.230;2023-08-17T14:04:41;4.97;;;3.77;;
10987;SDS011;5547;42.672;23.230;2023-08-17T14:07:42;4.80;;;4.00;;
10987;SDS011;5547;42.672;23.230;2023-08-17T14:10:42;5.90;;;4.33;;
10987;SDS011;5547;42.672;23.230;2023-08-17T14:13:43;5.10;;;3.70;;
10987;SDS011;5547;42.672;23.230;2023-08-17T14:16:43;5.53;;;3.83;;
10987;SDS011;5547;42.672;23.230;2023-08-17T14:19:44;7.37;;;3.70;;
10987;SDS011;5547;42.672;23.230;2023-08-17T14:22:44;6.00;;;3.70;;
10987;SDS011;5547;42.672;23.230;2023-08-17T14:25:45;6.37;;;3.73;;
10987;SDS011;5547;42.672;23.230;2023-08-17T14:28:45;5.37;;;3.47;;
10987;SDS011;5547;42.672;23.230;2023-08-17T14:31:45;5.80;;;3.43;;
10987;SDS011;5547;42.672;23.230;2023-08-17T14:34:46;5.30;;;3.60;;
10987;SDS011;5547;42.672;23.230;2023-08-17T14:37:46;5.27;;;3.60;;
10987;SDS011;5547;42.672;23.230;2023-08-17T14:40:47;4.77;;;3.77;;
10987;SDS011;5547;42.672;23.230;2023-08-17T14:43:48;4.30;;;3.50;;
10987;SDS011;5547;42.672;23.230;2023-08-17T14:46:49;6.30;;;3.50;;
10987;SDS011;5547;42.672;23.230;2023-08-17T14:49:49;5.10;;;3.80;;
10987;SDS011;5547;42.672;23.230;2023-08-17T14:52:50;5.15;;;3.60;;
10987;SDS011;5547;42.672;23.230;2023-08-17T14:55:50;4.07;;;3.50;;
10987;SDS011;5547;42.672;23.230;2023-08-17T14:58:50;5.45;;;3.50;;
10987;SDS011;5547;42.672;23.230;2023-08-17T15:01:51;6.17;;;3.70;;
10987;SDS011;5547;42.672;23.230;2023-08-17T15:04:52;5.50;;;3.30;;
10987;SDS011;5547;42.672;23.230;2023-08-17T15:07:53;5.13;;;3.37;;
10987;SDS011;5547;42.672;23.230;2023-08-17T15:10:53;4.50;;;4.10;;
10987;SDS011;5547;42.672;23.230;2023-08-17T15:13:53;4.63;;;3.60;;
10987;SDS011;5547;42.672;23.230;2023-08-17T15:16:54;4.57;;;3.57;;
10987;SDS011;5547;42.672;23.230;2023-08-17T15:19:54;5.57;;;3.60;;
10987;SDS011;5547;42.672;23.230;2023-08-17T15:22:54;4.60;;;3.50;;
10987;SDS011;5547;42.672;23.230;2023-08-17T15:25:55;6.63;;;3.40;;
10987;SDS011;5547;42.672;23.230;2023-08-17T15:28:55;4.40;;;3.40;;
10987;SDS011;5547;42.672;23.230;2023-08-17T15:31:56;3.93;;;3.40;;
10987;SDS011;5547;42.672;23.230;2023-08-17T15:34:56;5.47;;;3.50;;
10987;SDS011;5547;42.672;23.230;2023-08-17T15:37:57;5.47;;;3.60;;
10987;SDS011;5547;42.672;23.230;2023-08-17T15:40:57;5.57;;;3.80;;
10987;SDS011;5547;42.672;23.230;2023-08-17T15:43:58;5.40;;;3.70;;
10987;SDS011;5547;42.672;23.230;2023-08-17T15:46:58;6.33;;;3.70;;
10987;SDS011;5547;42.672;23.230;2023-08-17T15:50:00;5.18;;;3.70;;
10987;SDS011;5547;42.672;23.230;2023-08-17T15:53:00;5.70;;;3.67;;
10987;SDS011;5547;42.672;23.230;2023-08-17T15:56:03;6.10;;;4.00;;
10987;SDS011;5547;42.672;23.230;2023-08-17T15:59:03;7.23;;;4.03;;
10987;SDS011;5547;42.672;23.230;2023-08-17T16:02:04;4.53;;;3.73;;
10987;SDS011;5547;42.672;23.230;2023-08-17T16:05:05;6.60;;;4.18;;
10987;SDS011;5547;42.672;23.230;2023-08-17T16:08:05;6.55;;;3.95;;
10987;SDS011;5547;42.672;23.230;2023-08-17T16:11:07;5.13;;;4.00;;
10987;SDS011;5547;42.672;23.230;2023-08-17T16:14:07;4.40;;;3.93;;
10987;SDS011;5547;42.672;23.230;2023-08-17T16:17:07;6.50;;;4.00;;
10987;SDS011;5547;42.672;23.230;2023-08-17T16:20:08;4.67;;;3.57;;
10987;SDS011;5547;42.672;23.230;2023-08-17T16:23:09;6.63;;;3.78;;
10987;SDS011;5547;42.672;23.230;2023-08-17T16:26:11;7.75;;;4.30;;
10987;SDS011;5547;42.672;23.230;2023-08-17T16:29:11;5.53;;;3.80;;
10987;SDS011;5547;42.672;23.230;2023-08-17T16:32:12;5.30;;;3.90;;
10987;SDS011;5547;42.672;23.230;2023-08-17T16:35:12;5.77;;;4.00;;
10987;SDS011;5547;42.672;23.230;2023-08-17T16:38:14;4.90;;;4.10;;
10987;SDS011;5547;42.672;23.230;2023-08-17T16:41:14;5.07;;;3.75;;
10987;SDS011;5547;42.672;23.230;2023-08-17T16:44:15;5.72;;;4.20;;
10987;SDS011;5547;42.672;23.230;2023-08-17T16:47:15;6.07;;;4.10;;
10987;SDS011;5547;42.672;23.230;2023-08-17T16:50:16;5.57;;;4.17;;
10987;SDS011;5547;42.672;23.230;2023-08-17T16:53:16;4.50;;;4.10;;
10987;SDS011;5547;42.672;23.230;2023-08-17T16:56:17;5.63;;;4.10;;
10987;SDS011;5547;42.672;23.230;2023-08-17T16:59:17;4.60;;;4.20;;
10987;SDS011;5547;42.672;23.230;2023-08-17T17:02:18;6.80;;;3.90;;
10987;SDS011;5547;42.672;23.230;2023-08-17T17:05:18;5.20;;;4.23;;
10987;SDS011;5547;42.672;23.230;2023-08-17T17:08:18;6.13;;;4.50;;
10987;SDS011;5547;42.672;23.230;2023-08-17T17:11:19;5.30;;;4.60;;
10987;SDS011;5547;42.672;23.230;2023-08-17T17:14:19;7.40;;;4.50;;
10987;SDS011;5547;42.672;23.230;2023-08-17T17:17:20;5.55;;;4.72;;
10987;SDS011;5547;42.672;23.230;2023-08-17T17:20:20;7.27;;;5.00;;
10987;SDS011;5547;42.672;23.230;2023-08-17T17:23:21;7.00;;;4.40;;
10987;SDS011;5547;42.672;23.230;2023-08-17T17:26:21;8.47;;;5.00;;
10987;SDS011;5547;42.672;23.230;2023-08-17T17:29:22;5.57;;;4.30;;
10987;SDS011;5547;42.672;23.230;2023-08-17T17:32:22;6.30;;;4.47;;
10987;SDS011;5547;42.672;23.230;2023-08-17T17:35:22;5.63;;;4.50;;
10987;SDS011;5547;42.672;23.230;2023-08-17T17:38:23;6.07;;;4.60;;
10987;SDS011;5547;42.672;23.230;2023-08-17T17:41:23;7.40;;;4.87;;
10987;SDS011;5547;42.672;23.230;2023-08-17T17:44:24;6.73;;;4.90;;
10987;SDS011;5547;42.672;23.230;2023-08-17T17:47:24;7.70;;;4.70;;
10987;SDS011;5547;42.672;23.230;2023-08-17T17:50:25;6.13;;;5.00;;
10987;SDS011;5547;42.672;23.230;2023-08-17T17:53:25;7.07;;;5.25;;
10987;SDS011;5547;42.672;23.230;2023-08-17T17:56:44;7.88;;;4.55;;
10987;SDS011;5547;42.672;23.230;2023-08-17T17:59:44;6.13;;;5.03;;
10987;SDS011;5547;42.672;23.230;2023-08-17T18:02:45;9.53;;;6.70;;
10987;SDS011;5547;42.672;23.230;2023-08-17T18:05:46;8.67;;;5.77;;
10987;SDS011;5547;42.672;23.230;2023-08-17T18:08:46;6.28;;;5.03;;
10987;SDS011;5547;42.672;23.230;2023-08-17T18:11:47;6.80;;;6.07;;
10987;SDS011;5547;42.672;23.230;2023-08-17T18:14:47;7.37;;;4.33;;
10987;SDS011;5547;42.672;23.230;2023-08-17T18:17:48;5.53;;;4.45;;